S28 weather

International Peace Garden Airport
Dunseith, North Dakota, United States

Public forecast

Using degrees Fahrenheit for public forecast. Weather courtesy of forecast.io.

Closest aviation weather report (METAR) to International Peace Garden Airport

Closest report is Rolla Municipal Airport, 18.0 nm (33.3 km) ESE. Retrieved 2019/12/14 04:35 UTC (3 minutes ago):

K06D 140435Z AUTO 34010KT 7SM -SN OVC008 M20/M22 A3004 RMK AO2

Closest aviation forecast (TAF) to International Peace Garden Airport

Closest forecast is Brandon Municipal Airport, 54.9 nm (101.6 km) N. Retrieved 2019-12-14 00:45 UTC (4 hours ago):

TAF TAF CYBR 132343Z 1400/1412 33010KT P6SM SCT040 TEMPO 1400/1406 6SM -SN SCT020 BKN040 FM140600 33008KT P6SM SCT020 RMK NXT FCST BY 140600Z